Tollville, Arkansas
Current Conditions -  °F | °C
As of 9:55 AM on Friday 28 Nov 2014 (Local Time) from KSGT Reporting Station
Overcast Overcast  
Wind Chill: 37°   Ceiling: 500
Heat Index: 45°   Visibility: 0.75mi
Dew Point: 34°   Wind: 17mph
Humidity: 66%   Direction: 170°S
Pressure: 30.36"   Gusts: NA
Location:  34.7129°N, 91.5513°W
Report Text: KSGT 281555Z AUTO 17015KT 3/4SM VV005 07/01 A3036 RMK AO1
Loading
Personal Weather Stations






























Interactive Weather Map New forecast layout! Learn more

10-Day Weather Forecast

Advertisements
Track Severe Weather on mobile